Aeroporto :
LOGIN :

Iscrizione | Disclaimer

   EN    FR    IT 

 










Sommario :    VFR   VFR Marginale   IFR   IFR Intensivo   IFR Molto Intensivo
Visibilità : 
Base nubi : 
>= 8 km
>= 3000ft
5 / 8 km
1000 / 3000 ft
1500m / 5 km
500 / 1000 ft
800 / 1500m
200 / 500 ft
< 800m
< 200 ft
Simboli :   Temporali  Nebbia  Neve Forte  Precipitazioni Forti  Vento > 20 kt
SIGMETs :   Varie  Temporali  Ghiacco  Turbolenza  Onda orograficha  Ceneri Vulcaniche






- Altitudine del aeroporto : 131 ft
- Codice IATA : PAS


LGPA - Paros

ULTIMO METAR :
  • 020150Z AUTO 02004KT //// // ////// 16/16 Q1008 RE//

METARs OBSOLETI :
  • 020120Z AUTO 02006KT //// // ////// 16/16 Q1008 RE//
  • 020050Z AUTO 02005KT //// // ////// 16/16 Q1009 RE//
  • 020020Z AUTO 01004KT //// // ////// 17/16 Q1009 RE//
  • 012350Z AUTO 02005KT //// // ////// 17/16 Q1009 RE//
  • 012320Z AUTO 36004KT //// // ////// 17/15 Q1009 RE//
  • 012250Z AUTO 01005KT //// // ////// 17/15 Q1009 RE//

TAF N/A



MetMap, La meteo Aeronautica in un colpo d'occhio ! - Copyright ORBIFLY Dicembre 2007 - Disclaimer

ORBIFLY MET'MAP TEAM :

Programmazione e sviluppo : Alexandra Zaïnal
Concezione : Baudouin d'Aumeries
Aiuto per la programmazione : Marc-Olivier Méhu
Supporto tecnico e logistico : Manuel Goepfert
Aiuto per la traduzione : Arnaldo La Scala

Contatto : metmap@orbifly.com




FONTI E CREDITI :

   NOAA